createdAt,value
2018-12-13T00:01:22.877Z,7.87
2018-12-13T00:03:52.589Z,7.89
2018-12-13T00:06:21.732Z,7.87
2018-12-13T00:08:52.575Z,7.86
2018-12-13T00:11:21.690Z,7.85
2018-12-13T00:13:50.811Z,7.83
2018-12-13T00:16:20.875Z,7.81
2018-12-13T00:18:50.036Z,7.81
2018-12-13T00:21:19.250Z,7.80
2018-12-13T00:23:48.443Z,7.81
2018-12-13T00:26:17.528Z,7.82
2018-12-13T00:28:46.603Z,7.80
2018-12-13T00:31:15.682Z,7.77
2018-12-13T00:33:46.250Z,7.76
2018-12-13T00:36:18.727Z,7.72
2018-12-13T00:38:47.775Z,7.71
2018-12-13T00:41:16.857Z,7.71
2018-12-13T00:43:45.993Z,7.71
2018-12-13T00:46:15.110Z,7.71
2018-12-13T00:48:44.232Z,7.68
2018-12-13T00:51:13.302Z,7.66
2018-12-13T00:53:43.096Z,7.63
2018-12-13T00:56:12.174Z,7.62
2018-12-13T00:58:41.338Z,7.60
2018-12-13T01:01:10.921Z,7.60
2018-12-13T01:03:40.314Z,7.57
2018-12-13T01:06:09.443Z,7.55
2018-12-13T01:08:38.576Z,7.53
2018-12-13T01:11:07.900Z,7.53
2018-12-13T01:13:37.720Z,7.53
2018-12-13T01:16:07.002Z,7.52
2018-12-13T01:18:36.282Z,7.53
2018-12-13T01:21:05.713Z,7.54
2018-12-13T01:23:35.521Z,7.53
2018-12-13T01:26:04.689Z,7.52
2018-12-13T01:28:33.795Z,7.52
2018-12-13T01:31:02.930Z,7.50
2018-12-13T01:33:32.088Z,7.49
2018-12-13T01:36:01.201Z,7.48
2018-12-13T01:38:30.379Z,7.48
2018-12-13T01:40:59.607Z,7.48
2018-12-13T01:43:35.094Z,7.48
2018-12-13T01:46:05.787Z,7.47
2018-12-13T01:48:34.930Z,7.45
2018-12-13T01:51:04.066Z,7.46
2018-12-13T01:53:33.253Z,7.46
2018-12-13T01:56:02.420Z,7.47
2018-12-13T01:58:31.476Z,7.47
2018-12-13T02:01:00.857Z,7.46
2018-12-13T02:03:29.936Z,7.46
2018-12-13T02:05:59.021Z,7.45
2018-12-13T02:08:28.232Z,7.43
2018-12-13T02:10:57.424Z,7.43
2018-12-13T02:13:26.654Z,7.41
2018-12-13T02:15:56.368Z,7.40
2018-12-13T02:18:25.463Z,7.42
2018-12-13T02:20:54.623Z,7.40
2018-12-13T02:23:23.792Z,7.40
2018-12-13T02:25:54.781Z,7.39
2018-12-13T02:28:24.086Z,7.39
2018-12-13T02:30:53.311Z,7.40
2018-12-13T02:33:22.371Z,7.40
2018-12-13T02:35:51.429Z,7.39
2018-12-13T02:38:20.526Z,7.40
2018-12-13T02:40:49.674Z,7.39
2018-12-13T02:43:18.744Z,7.39
2018-12-13T02:45:47.811Z,7.40
2018-12-13T02:48:16.927Z,7.41
2018-12-13T02:50:45.982Z,7.43
2018-12-13T02:53:16.084Z,7.42
2018-12-13T02:55:45.174Z,7.43
2018-12-13T02:58:14.379Z,7.41
2018-12-13T03:00:43.588Z,7.41
2018-12-13T03:03:15.728Z,7.41
2018-12-13T03:05:44.906Z,7.40
2018-12-13T03:08:14.038Z,7.40
2018-12-13T03:10:43.241Z,7.40
2018-12-13T03:13:13.127Z,7.40
2018-12-13T03:15:42.239Z,7.41
2018-12-13T03:18:11.428Z,7.42
2018-12-13T03:20:40.633Z,7.42
2018-12-13T03:23:09.711Z,7.41
2018-12-13T03:25:38.716Z,7.41
2018-12-13T03:28:07.807Z,7.42
2018-12-13T03:30:36.905Z,7.41
2018-12-13T03:33:05.974Z,7.43
2018-12-13T03:35:35.061Z,7.43
2018-12-13T03:38:04.100Z,7.43
2018-12-13T03:40:33.159Z,7.43
2018-12-13T03:43:02.226Z,7.41
2018-12-13T03:45:31.307Z,7.41
2018-12-13T03:48:00.344Z,7.41
2018-12-13T03:50:29.446Z,7.40
2018-12-13T03:52:58.515Z,7.40
2018-12-13T03:55:27.652Z,7.40
2018-12-13T03:57:56.889Z,7.39
2018-12-13T04:00:26.579Z,7.37
2018-12-13T04:03:03.654Z,7.37
2018-12-13T04:37:43.319Z,7.30
2018-12-13T04:40:12.632Z,7.28
2018-12-13T04:42:41.694Z,7.29
2018-12-13T04:45:10.776Z,7.29
2018-12-13T04:47:40.076Z,7.28
2018-12-13T04:50:09.983Z,7.27
2018-12-13T04:52:39.079Z,7.28
2018-12-13T04:55:08.292Z,7.29
2018-12-13T04:57:37.399Z,7.29
2018-12-13T05:00:07.318Z,7.31
2018-12-13T05:02:36.341Z,7.31
2018-12-13T05:05:05.505Z,7.31
2018-12-13T05:07:34.552Z,7.32
2018-12-13T05:10:03.675Z,7.34
2018-12-13T05:12:32.867Z,7.33
2018-12-13T05:15:02.056Z,7.32
2018-12-13T05:17:31.225Z,7.31
2018-12-13T05:20:00.313Z,7.32
2018-12-13T05:22:29.455Z,7.30
2018-12-13T05:24:58.529Z,7.30
2018-12-13T05:27:27.622Z,7.31
2018-12-13T05:29:56.674Z,7.30
2018-12-13T05:32:26.112Z,7.29
2018-12-13T05:34:55.217Z,7.31
2018-12-13T05:37:24.308Z,7.32
2018-12-13T05:39:53.368Z,7.33
2018-12-13T05:42:23.489Z,7.33
2018-12-13T05:44:52.588Z,7.32
2018-12-13T05:47:21.736Z,7.32
2018-12-13T05:49:51.007Z,7.31
2018-12-13T05:52:21.023Z,7.31
2018-12-13T05:54:50.204Z,7.31
2018-12-13T05:57:19.253Z,7.32
2018-12-13T05:59:48.322Z,7.31
2018-12-13T06:02:18.022Z,7.32
2018-12-13T06:04:47.151Z,7.31
2018-12-13T06:07:16.260Z,7.32
2018-12-13T06:09:45.357Z,7.32
2018-12-13T06:12:14.667Z,7.33
2018-12-13T06:14:43.775Z,7.31
2018-12-13T06:17:13.872Z,7.31
2018-12-13T06:19:43.098Z,7.31
2018-12-13T06:22:12.227Z,7.32
2018-12-13T06:24:41.442Z,7.30
2018-12-13T06:27:10.718Z,7.31
2018-12-13T06:29:41.877Z,7.31
2018-12-13T06:32:09.079Z,7.30
2018-12-13T06:34:38.175Z,7.31
2018-12-13T06:37:07.242Z,7.31
2018-12-13T06:39:36.306Z,7.31
2018-12-13T06:42:05.399Z,7.31
2018-12-13T06:44:34.482Z,7.30
2018-12-13T06:47:03.751Z,7.30
2018-12-13T06:49:33.057Z,7.32
2018-12-13T06:52:02.379Z,7.32
2018-12-13T06:54:31.648Z,7.32
2018-12-13T06:57:00.922Z,7.32
2018-12-13T06:59:30.624Z,7.33
2018-12-13T07:01:59.831Z,7.35
2018-12-13T07:04:29.467Z,7.35
2018-12-13T07:06:58.650Z,7.36
2018-12-13T07:09:27.776Z,7.36
2018-12-13T07:11:57.060Z,7.37
2018-12-13T07:14:26.366Z,7.36
2018-12-13T07:16:55.740Z,7.36
2018-12-13T07:19:25.887Z,7.37
2018-12-13T07:21:55.174Z,7.38
2018-12-13T07:24:24.301Z,7.39
2018-12-13T07:26:53.344Z,7.40
2018-12-13T07:29:22.389Z,7.40
2018-12-13T07:31:51.716Z,7.41
2018-12-13T07:34:20.774Z,7.40
2018-12-13T07:36:49.851Z,7.43
2018-12-13T07:39:19.123Z,7.41
2018-12-13T07:41:48.341Z,7.41
2018-12-13T07:44:18.057Z,7.42
2018-12-13T07:46:47.150Z,7.43
2018-12-13T07:49:17.158Z,7.44
2018-12-13T07:51:48.215Z,7.45
2018-12-13T07:54:17.534Z,7.45
2018-12-13T07:56:46.850Z,7.47
2018-12-13T07:59:16.049Z,7.49
2018-12-13T08:01:45.844Z,7.48
2018-12-13T08:04:15.231Z,7.46
2018-12-13T08:06:44.512Z,7.48
2018-12-13T08:09:13.825Z,7.45
2018-12-13T08:11:43.444Z,7.46
2018-12-13T08:14:12.832Z,7.45
2018-12-13T08:16:42.173Z,7.45
2018-12-13T08:19:11.436Z,7.46
2018-12-13T08:21:40.914Z,7.45
2018-12-13T08:24:10.224Z,7.46
2018-12-13T08:26:39.327Z,7.46
2018-12-13T08:29:09.454Z,7.47
2018-12-13T08:31:38.865Z,7.46
2018-12-13T08:34:08.041Z,7.47
2018-12-13T08:36:37.341Z,7.49
2018-12-13T08:39:09.984Z,7.52
2018-12-13T08:41:38.227Z,7.53
2018-12-13T08:44:08.159Z,7.52
2018-12-13T08:46:37.208Z,7.52
2018-12-13T08:49:06.377Z,7.54
2018-12-13T08:51:36.911Z,7.55
2018-12-13T08:54:06.986Z,7.54
2018-12-13T08:56:37.110Z,7.55
2018-12-13T08:59:06.292Z,7.56
2018-12-13T09:01:36.924Z,7.58
2018-12-13T09:04:07.871Z,7.59
2018-12-13T09:06:37.160Z,7.61
2018-12-13T09:09:08.738Z,7.60
2018-12-13T09:11:38.675Z,7.63
2018-12-13T09:14:08.653Z,7.65
2018-12-13T09:16:38.051Z,7.66
2018-12-13T09:19:07.490Z,7.66
2018-12-13T09:21:37.477Z,7.66
2018-12-13T09:24:06.928Z,7.66
2018-12-13T09:26:37.365Z,7.64
2018-12-13T09:29:06.979Z,7.66
2018-12-13T09:31:39.397Z,7.68
2018-12-13T09:34:29.123Z,7.67
2018-12-13T09:37:16.045Z,7.68
2018-12-13T09:39:46.213Z,7.70
2018-12-13T09:42:15.860Z,7.71
2018-12-13T09:44:44.983Z,7.72
2018-12-13T09:47:14.208Z,7.73
2018-12-13T09:49:44.472Z,7.74
2018-12-13T09:52:14.312Z,7.75
2018-12-13T09:54:45.394Z,7.75
2018-12-13T10:00:10.912Z,7.76
2018-12-13T10:02:41.977Z,7.76
2018-12-13T10:05:12.879Z,7.76
2018-12-13T10:07:42.110Z,7.77
2018-12-13T10:10:11.334Z,7.76
2018-12-13T10:12:41.070Z,7.77
2018-12-13T10:15:12.127Z,7.77
2018-12-13T10:17:41.444Z,7.80
2018-12-13T10:20:14.960Z,7.82
2018-12-13T10:22:44.165Z,7.84
2018-12-13T10:25:13.476Z,7.85
2018-12-13T10:27:42.729Z,7.86
2018-12-13T10:30:12.385Z,7.86
2018-12-13T10:32:41.537Z,7.86
2018-12-13T10:35:11.555Z,7.86
2018-12-13T10:37:40.407Z,7.90
2018-12-13T10:40:09.606Z,7.94
2018-12-13T10:42:38.721Z,7.98
2018-12-13T10:45:08.628Z,7.99
2018-12-13T10:47:37.743Z,7.97
2018-12-13T10:50:08.441Z,8.00
2018-12-13T10:52:38.593Z,8.03
2018-12-13T10:55:07.984Z,8.06
2018-12-13T10:57:41.095Z,8.10
2018-12-13T11:00:17.845Z,8.11
2018-12-13T11:02:59.029Z,8.07
2018-12-13T11:05:30.765Z,8.06
2018-12-13T11:08:00.033Z,8.04
2018-12-13T11:10:29.981Z,8.02
2018-12-13T11:12:59.918Z,8.00
2018-12-13T11:15:29.177Z,8.05
2018-12-13T11:17:58.387Z,8.07
2018-12-13T11:20:27.788Z,8.08
2018-12-13T11:22:58.189Z,8.10
2018-12-13T11:25:27.337Z,8.10
2018-12-13T11:28:32.589Z,8.12
2018-12-13T11:31:02.271Z,8.15
2018-12-13T11:33:31.594Z,8.16
2018-12-13T11:36:00.773Z,8.16
2018-12-13T11:38:31.694Z,8.14
2018-12-13T11:41:00.901Z,8.14
2018-12-13T11:43:31.829Z,8.13
2018-12-13T11:46:01.192Z,8.14
2018-12-13T11:48:30.605Z,8.19
2018-12-13T11:51:00.035Z,8.21
2018-12-13T11:53:29.215Z,8.22
2018-12-13T11:55:58.877Z,8.24
2018-12-13T11:58:28.036Z,8.27
2018-12-13T12:00:57.307Z,8.30
2018-12-13T12:03:27.285Z,8.32
2018-12-13T12:05:56.406Z,8.31
2018-12-13T12:08:27.553Z,8.32
2018-12-13T12:10:57.180Z,8.32
2018-12-13T12:13:27.399Z,8.37
2018-12-13T12:15:57.384Z,8.39
2018-12-13T12:18:26.780Z,8.39
2018-12-13T12:20:55.873Z,8.36
2018-12-13T12:23:25.683Z,8.34
2018-12-13T12:25:54.992Z,8.32
2018-12-13T12:28:25.128Z,8.29
2018-12-13T12:30:55.638Z,8.27
2018-12-13T12:33:28.623Z,8.24
2018-12-13T12:36:02.266Z,8.23
2018-12-13T12:38:40.195Z,8.24
2018-12-13T12:41:10.365Z,8.25
2018-12-13T12:43:39.729Z,8.25
2018-12-13T12:46:09.802Z,8.24
2018-12-13T12:48:41.606Z,8.23
2018-12-13T12:51:11.927Z,8.25
2018-12-13T12:53:41.153Z,8.25
2018-12-13T12:56:11.068Z,8.24
2018-12-13T12:58:40.382Z,8.22
2018-12-13T13:01:09.908Z,8.23
2018-12-13T13:03:39.110Z,8.24
2018-12-13T13:06:08.277Z,8.26
2018-12-13T13:08:39.034Z,8.27
2018-12-13T13:11:08.999Z,8.26
2018-12-13T13:13:38.991Z,8.24
2018-12-13T13:16:09.660Z,8.22
2018-12-13T13:18:40.059Z,8.19
2018-12-13T13:21:09.302Z,8.19
2018-12-13T13:23:38.540Z,8.20
2018-12-13T13:26:07.692Z,8.21
2018-12-13T13:28:44.306Z,8.20
2018-12-13T13:31:13.565Z,8.18
2018-12-13T13:33:43.002Z,8.15
2018-12-13T13:36:12.183Z,8.15
2018-12-13T13:38:43.226Z,8.14
2018-12-13T13:41:12.679Z,8.14
2018-12-13T13:43:42.540Z,8.16
2018-12-13T13:46:11.736Z,8.17
2018-12-13T13:48:43.306Z,8.16
2018-12-13T13:51:12.745Z,8.17
2018-12-13T13:53:43.218Z,8.18
2018-12-13T13:56:14.203Z,8.17
2018-12-13T13:58:44.138Z,8.17
2018-12-13T14:01:13.304Z,8.15
2018-12-13T14:03:44.234Z,8.15
2018-12-13T14:06:13.499Z,8.15
2018-12-13T14:08:43.670Z,8.15
2018-12-13T14:11:12.814Z,8.13
2018-12-13T14:13:41.858Z,8.10
2018-12-13T14:16:11.144Z,8.08
2018-12-13T14:18:40.365Z,8.04
2018-12-13T14:21:10.039Z,8.00
2018-12-13T14:23:39.272Z,7.99
2018-12-13T14:26:08.371Z,7.98
2018-12-13T14:28:38.728Z,7.96
2018-12-13T14:31:07.921Z,7.93
2018-12-13T14:33:36.956Z,7.90
2018-12-13T14:36:06.694Z,7.90
2018-12-13T14:38:36.782Z,7.90
2018-12-13T14:41:06.039Z,7.89
2018-12-13T14:43:39.462Z,7.86
2018-12-13T14:46:08.598Z,7.85
2018-12-13T14:48:37.951Z,7.84
2018-12-13T14:51:08.331Z,7.83
2018-12-13T14:53:37.518Z,7.81
2018-12-13T14:56:06.824Z,7.82
2018-12-13T14:58:36.181Z,7.83
2018-12-13T15:01:05.492Z,7.82
2018-12-13T15:03:34.669Z,7.84
2018-12-13T15:06:04.915Z,7.81
2018-12-13T15:08:34.246Z,7.79
2018-12-13T15:11:03.481Z,7.78
2018-12-13T15:13:33.048Z,7.76
2018-12-13T15:16:02.726Z,7.75
2018-12-13T15:18:32.060Z,7.73
2018-12-13T15:21:01.433Z,7.73
2018-12-13T15:23:31.054Z,7.73
2018-12-13T15:26:04.939Z,7.72
2018-12-13T15:28:34.174Z,7.70
2018-12-13T15:33:38.975Z,7.68
2018-12-13T15:36:08.252Z,7.70
2018-12-13T15:38:40.370Z,7.70
2018-12-13T15:41:10.359Z,7.67
2018-12-13T15:43:41.041Z,7.65
2018-12-13T15:46:12.538Z,7.60
2018-12-13T15:48:42.081Z,7.58
2018-12-13T15:51:11.401Z,7.56
2018-12-13T15:53:40.699Z,7.54
2018-12-13T15:56:13.991Z,7.50
2018-12-13T15:58:43.245Z,7.48
2018-12-13T16:01:16.331Z,7.47
2018-12-13T16:03:45.508Z,7.45
2018-12-13T16:06:15.345Z,7.43
2018-12-13T16:08:45.443Z,7.43
2018-12-13T16:11:15.567Z,7.41
2018-12-13T16:13:45.045Z,7.41
2018-12-13T16:16:14.298Z,7.39
2018-12-13T16:18:43.832Z,7.37
2018-12-13T16:21:13.125Z,7.37
2018-12-13T16:23:42.766Z,7.36
2018-12-13T16:26:12.187Z,7.35
2018-12-13T16:28:41.499Z,7.33
2018-12-13T16:31:11.110Z,7.31
2018-12-13T16:33:41.161Z,7.30
2018-12-13T16:36:10.562Z,7.35
2018-12-13T16:38:39.943Z,7.34
2018-12-13T16:41:09.026Z,7.33
2018-12-13T16:43:42.717Z,7.31
2018-12-13T16:46:12.205Z,7.28
2018-12-13T16:48:41.439Z,7.26
2018-12-13T16:51:10.845Z,7.25
2018-12-13T16:53:40.646Z,7.23
2018-12-13T16:56:09.752Z,7.21
2018-12-13T16:58:38.973Z,7.18
2018-12-13T17:01:08.179Z,7.15
2018-12-13T17:03:40.982Z,7.12
2018-12-13T17:06:11.121Z,7.10
2018-12-13T17:08:40.244Z,7.10
2018-12-13T17:11:09.462Z,7.10
2018-12-13T17:13:39.644Z,7.10
2018-12-13T17:16:10.278Z,7.12
2018-12-13T17:18:39.449Z,7.09
2018-12-13T17:21:08.705Z,7.09
2018-12-13T17:23:38.011Z,7.08
2018-12-13T17:26:08.065Z,7.04
2018-12-13T17:28:37.369Z,7.01
2018-12-13T17:31:06.792Z,6.98
2018-12-13T17:33:35.787Z,6.96
2018-12-13T17:36:04.942Z,6.95
2018-12-13T17:38:34.007Z,6.93
2018-12-13T17:41:03.143Z,6.89
2018-12-13T17:43:32.195Z,6.84
2018-12-13T17:46:02.294Z,6.83
2018-12-13T17:48:31.397Z,6.84
2018-12-13T17:51:00.420Z,6.83
2018-12-13T17:53:29.505Z,6.82
2018-12-13T17:55:58.592Z,6.78
2018-12-13T17:58:27.632Z,6.79
2018-12-13T18:00:58.452Z,6.78
2018-12-13T18:03:27.500Z,6.75
2018-12-13T18:05:57.676Z,6.76
2018-12-13T18:08:26.790Z,6.78
2018-12-13T18:10:56.556Z,6.79
2018-12-13T18:13:25.540Z,6.77
2018-12-13T18:15:55.750Z,6.76
2018-12-13T18:18:24.887Z,6.73
2018-12-13T18:20:54.128Z,6.72
2018-12-13T18:23:23.270Z,6.71
2018-12-13T18:25:52.456Z,6.70
2018-12-13T18:28:21.728Z,6.67
2018-12-13T18:30:51.262Z,6.64
2018-12-13T18:33:20.260Z,6.63
2018-12-13T18:35:50.434Z,6.61
2018-12-13T18:38:19.466Z,6.58
2018-12-13T18:40:48.553Z,6.56
2018-12-13T18:43:18.621Z,6.54
2018-12-13T18:45:52.110Z,6.50
2018-12-13T18:48:25.411Z,6.47
2018-12-13T18:50:54.573Z,6.45
2018-12-13T18:53:23.889Z,6.41
2018-12-13T18:55:54.862Z,6.37
2018-12-13T18:58:24.008Z,6.34
2018-12-13T19:00:53.018Z,6.34
2018-12-13T19:03:22.585Z,6.31
2018-12-13T19:05:51.705Z,6.30
2018-12-13T19:08:21.075Z,6.29
2018-12-13T19:10:50.802Z,6.26
2018-12-13T19:13:19.921Z,6.25
2018-12-13T19:15:50.315Z,6.25
2018-12-13T19:18:19.638Z,6.24
2018-12-13T19:20:48.739Z,6.22
2018-12-13T19:23:17.940Z,6.20
2018-12-13T19:25:47.094Z,6.17
2018-12-13T19:28:16.358Z,6.16
2018-12-13T19:30:50.089Z,6.13
2018-12-13T19:33:19.289Z,6.12
2018-12-13T19:35:48.454Z,6.11
2018-12-13T19:38:17.805Z,6.08
2018-12-13T19:40:48.445Z,6.05
2018-12-13T19:43:17.815Z,6.02
2018-12-13T19:45:47.330Z,6.01
2018-12-13T19:48:16.593Z,6.01
2018-12-13T19:50:45.739Z,5.96
2018-12-13T19:53:14.931Z,5.93
2018-12-13T19:55:44.108Z,5.92
2018-12-13T19:58:13.250Z,5.90
2018-12-13T20:00:42.327Z,5.87
2018-12-13T20:03:11.853Z,5.86
2018-12-13T20:05:40.893Z,5.85
2018-12-13T20:08:09.959Z,5.84
2018-12-13T20:10:39.012Z,5.82
2018-12-13T20:13:08.161Z,5.81
2018-12-13T20:15:37.338Z,5.80
2018-12-13T20:18:07.104Z,5.79
2018-12-13T20:20:36.205Z,5.77
2018-12-13T20:23:05.436Z,5.75
2018-12-13T20:25:34.626Z,5.73
2018-12-13T20:28:03.665Z,5.71
2018-12-13T20:30:32.783Z,5.69
2018-12-13T20:33:01.835Z,5.66
2018-12-13T20:35:30.954Z,5.64
2018-12-13T20:38:00.949Z,5.62
2018-12-13T20:40:31.012Z,5.59
2018-12-13T20:43:00.226Z,5.57
2018-12-13T20:48:02.862Z,5.53
2018-12-13T20:50:31.851Z,5.51
2018-12-13T20:53:00.930Z,5.48
2018-12-13T20:55:30.133Z,5.47
2018-12-13T20:57:59.839Z,5.45
2018-12-13T21:00:28.861Z,5.43
2018-12-13T21:02:58.129Z,5.39
2018-12-13T21:05:27.252Z,5.36
2018-12-13T21:08:00.983Z,5.33
2018-12-13T21:10:31.207Z,5.32
2018-12-13T21:13:00.407Z,5.32
2018-12-13T21:15:30.842Z,5.32
2018-12-13T21:17:59.934Z,5.31
2018-12-13T21:20:31.096Z,5.32
2018-12-13T21:23:03.501Z,5.31
2018-12-13T21:25:34.209Z,5.32
2018-12-13T21:28:06.171Z,5.32
2018-12-13T21:30:37.949Z,5.32
2018-12-13T22:01:30.423Z,5.01
2018-12-13T22:03:59.455Z,4.98
2018-12-13T22:06:28.495Z,4.92
2018-12-13T22:08:58.942Z,4.91
2018-12-13T22:11:28.289Z,4.89
2018-12-13T22:13:57.303Z,4.86
2018-12-13T22:16:27.858Z,4.87
2018-12-13T22:18:58.140Z,4.86
2018-12-13T22:21:28.482Z,4.85
2018-12-13T22:23:57.540Z,4.83
2018-12-13T22:26:27.561Z,4.81
2018-12-13T22:29:11.542Z,4.80
2018-12-13T22:31:40.636Z,4.80
2018-12-13T22:34:13.240Z,4.81
2018-12-13T22:36:41.823Z,4.80
2018-12-13T22:39:11.574Z,4.79
2018-12-13T22:41:41.502Z,4.80
2018-12-13T22:44:11.718Z,4.78
2018-12-13T22:46:42.751Z,4.74
2018-12-13T22:49:11.882Z,4.70
2018-12-13T22:51:40.953Z,4.67
2018-12-13T22:54:10.048Z,4.65
2018-12-13T22:56:39.146Z,4.62
2018-12-13T22:59:08.245Z,4.61
2018-12-13T23:01:38.469Z,4.60
2018-12-13T23:04:07.466Z,4.59
2018-12-13T23:06:36.540Z,4.58
2018-12-13T23:09:07.478Z,4.56
2018-12-13T23:11:37.123Z,4.57
2018-12-13T23:14:05.783Z,4.55
2018-12-13T23:16:34.870Z,4.54
2018-12-13T23:19:04.068Z,4.52
2018-12-13T23:21:34.690Z,4.51
2018-12-13T23:24:04.661Z,4.47
2018-12-13T23:26:34.651Z,4.45
2018-12-13T23:29:04.682Z,4.44
2018-12-13T23:31:33.632Z,4.43
2018-12-13T23:34:04.503Z,4.42
2018-12-13T23:36:33.530Z,4.41
2018-12-13T23:39:03.325Z,4.39
2018-12-13T23:41:38.890Z,4.37
2018-12-13T23:44:01.740Z,4.36
2018-12-13T23:46:32.294Z,4.33
2018-12-13T23:49:01.400Z,4.31
2018-12-13T23:51:30.834Z,4.30
2018-12-13T23:54:01.192Z,4.28
2018-12-13T23:56:30.913Z,4.30
2018-12-13T23:59:03.202Z,4.30
